Commodore Clipper — C6QQ3 — position and weather

sailwx.info

Track history (hours):
 
Tides and Currents Weather Stations Pressure Air Temp Water Temp Dewpoint Dewpoint Depression Visibility Wind Speed Wind Dir Waves Ship Positions

Commodore Clipper

Operator: Condor Marine Services

Last reported at 2019-May-20 16:30 UTC. Time now 2019-May-20 16:38 UTC.
Position N 49°27' W 002°31'.

Length 130 m; draft 4.8 m.

Type: Ship. MMSI: 308094000.

Date/timePositionNaut miles runAvg speedWind from/ knotsBaromVisibWave heightAir tempDewpointWater temp
2019-May-20 16:30N 49°27' W 002°31'0 0.5
2019-May-20 16:01N 49°27' W 002°32'0 0.0
2019-May-20 15:31N 49°27' W 002°32'0 0.0
2019-May-20 15:01N 49°27' W 002°32'4 8.2
2019-May-20 14:30N 49°27' W 002°25'1019.0
2019-May-20 14:00N 49°32' W 002°14'1119.8
2019-May-20 13:27N 49°41' W 002°03'1021.1
2019-May-20 12:59N 49°49' W 001°55'1717.9
2019-May-20 12:04N 50°03' W 001°41'1216.4
2019-May-20 11:19N 50°12' W 001°28'616.0
2019-May-20 10:55N 50°17' W 001°22'715.6
2019-May-20 10:28N 50°23' W 001°16'715.1
2019-May-20 10:00N 50°29' W 001°10'613.0
2019-May-20 09:30N 50°35' W 001°09'714.3
2019-May-20 09:00N 50°41' W 001°03'713.9
2019-May-20 08:30N 50°48' W 001°07'1 2.2
2019-May-20 08:00N 50°49' W 001°06'0 0.0
2019-May-20 07:30N 50°49' W 001°06'0 0.0
2019-May-20 07:00N 50°49' W 001°06'0 0.0
2019-May-20 06:30N 50°49' W 001°06'0 0.0
2019-May-20 06:00N 50°49' W 001°06'0 0.0
2019-May-20 05:30N 50°49' W 001°06'1 2.3
2019-May-20 05:00N 50°48' W 001°07'511.0
2019-May-20 04:30N 50°43' W 001°02'611.6
2019-May-20 04:00N 50°37' W 001°04'713.6
2019-May-20 03:30N 50°32' W 001°10'913.3
2019-May-20 02:50N 50°24' W 001°18'513.9
2019-May-20 02:30N 50°20' W 001°22'1511.2
2019-May-20 01:09N 50°09' W 001°37'710.3
2019-May-20 00:29N 50°03' W 001°43'510.9
2019-May-20 00:00N 49°58' W 001°47'915.2
2019-May-19 23:25N 49°51' W 001°54'816.9
2019-May-19 22:58N 49°45' W 002°01'816.6
2019-May-19 22:31N 49°38' W 002°07'916.9
2019-May-19 22:00N 49°32' W 002°15'917.4
2019-May-19 21:31N 49°26' W 002°26'4 7.7
2019-May-19 21:00N 49°27' W 002°32'0 0.0
2019-May-19 20:30N 49°27' W 002°32'0 0.0
2019-May-19 20:00N 49°27' W 002°32'1 2.6
2019-May-19 19:30N 49°27' W 002°30'816.2
2019-May-19 19:01N 49°20' W 002°25'917.3
2019-May-19 18:30N 49°12' W 002°19'714.6
2019-May-19 18:00N 49°10' W 002°08'1 0.8
2019-May-19 16:44N 49°11' W 002°07'0 0.0
2019-May-19 15:52N 49°11' W 002°07'4 9.8
2019-May-19 15:30N 49°10' W 002°12'815.3
2019-May-19 15:00N 49°13' W 002°23'714.0
2019-May-19 14:31N 49°20' W 002°19'612.5
2019-May-19 14:00N 49°25' W 002°13'714.3
2019-May-19 13:30N 49°32' W 002°10'917.3
2019-May-19 13:00N 49°39' W 002°04'2419.4
2019-May-19 11:45N 49°58' W 001°40'417.4
2019-May-19 11:30N 50°02' W 001°36'1017.0
2019-May-19 10:53N 50°11' W 001°30'1316.3
2019-May-19 10:04N 50°23' W 001°20'116.2
2019-May-19 10:00N 50°24' W 001°19'815.7
2019-May-19 09:30N 50°31' W 001°14'714.7
2019-May-19 09:00N 50°37' W 001°07'714.1
2019-May-19 08:31N 50°44' W 001°04'510.3
2019-May-19 08:01N 50°49' W 001°06'0 0.8
2019-May-19 07:31N 50°49' W 001°06'0 0.0
2019-May-19 07:01N 50°49' W 001°06'0 0.0
2019-May-19 06:31N 50°49' W 001°06'0 0.5
2019-May-19 06:00N 50°49' W 001°06'4 7.5
2019-May-19 05:30N 50°45' W 001°05'612.4
2019-May-19 05:01N 50°40' W 000°59'816.7
2019-May-19 04:30N 50°34' W 001°07'916.0
2019-May-19 03:56N 50°27' W 001°16'1115.3
2019-May-19 03:12N 50°19' W 001°29'514.8
2019-May-19 02:52N 50°15' W 001°33'514.6
2019-May-19 02:31N 50°11' W 001°38'713.8
2019-May-19 02:00N 50°05' W 001°45'713.8
2019-May-19 01:31N 49°60' W 001°51'714.1
2019-May-19 01:00N 49°53' W 001°57'713.7
2019-May-19 00:30N 49°48' W 002°02'612.2
2019-May-19 00:01N 49°42' W 002°05'713.4
2019-May-18 23:30N 49°36' W 002°09'815.2
2019-May-18 23:00N 49°30' W 002°17'815.3
2019-May-18 22:31N 49°26' W 002°27'3 6.9
2019-May-18 22:00N 49°27' W 002°32'0 0.0
2019-May-18 21:30N 49°27' W 002°32'510.8
2019-May-18 21:00N 49°23' W 002°27'918.0
2019-May-18 20:30N 49°15' W 002°21'1016.6
2019-May-18 19:54N 49°10' W 002°08'1 0.7
2019-May-18 18:44N 49°11' W 002°07'1 4.4
2019-May-18 18:31N 49°10' W 002°08'714.9
2019-May-18 18:00N 49°12' W 002°19'816.7
2019-May-18 17:31N 49°19' W 002°24'816.8
2019-May-18 17:00N 49°27' W 002°30'1 2.4
2019-May-18 16:30N 49°27' W 002°32'0 0.0
2019-May-18 16:00N 49°27' W 002°32'0 0.0
2019-May-18 15:30N 49°27' W 002°32'0 0.0
2019-May-18 15:00N 49°27' W 002°32'2 4.1
2019-May-18 14:30N 49°26' W 002°29'713.3
2019-May-18 14:00N 49°29' W 002°20'612.0
2019-May-18 13:31N 49°32' W 002°12'611.9
2019-May-18 13:00N 49°36' W 002°06'1018.2
2019-May-18 12:28N 49°46' W 002°03'918.5
2019-May-18 11:57N 49°55' W 002°01'917.9
2019-May-18 11:27N 50°04' W 001°60'817.6
2019-May-18 11:00N 50°12' W 001°56'1117.3
2019-May-18 10:21N 50°23' W 001°52'617.0
2019-May-18 10:00N 50°29' W 001°51'816.9
2019-May-18 09:30N 50°37' W 001°53'611.3
2019-May-18 09:00N 50°42' W 001°57'1 2.9
2019-May-18 08:30N 50°42' W 001°59'0 0.0
2019-May-18 08:00N 50°42' W 001°59'0 0.0
2019-May-18 07:30N 50°42' W 001°59'0 0.0
2019-May-18 07:00N 50°42' W 001°59'1 1.1
2019-May-18 06:30N 50°42' W 001°59'5 9.8
2019-May-18 06:00N 50°39' W 001°53'510.2
2019-May-18 05:30N 50°34' W 001°51'911.4
2019-May-18 04:43N 50°25' W 001°55'411.4
2019-May-18 04:22N 50°21' W 001°56'1111.2
2019-May-18 03:24N 50°11' W 001°59'410.7
2019-May-18 03:01N 50°07' W 001°60'510.8
2019-May-18 02:31N 50°01' W 002°02'510.1
2019-May-18 02:00N 49°56' W 002°04'5 9.9
2019-May-18 01:28N 49°51' W 002°05'4 9.6
2019-May-18 01:00N 49°47' W 002°06'4 7.6
2019-May-18 00:30N 49°43' W 002°06'4 7.8
2019-May-18 00:00N 49°39' W 002°06'713.2
2019-May-17 23:30N 49°33' W 002°12'714.9
2019-May-17 23:01N 49°29' W 002°21'612.7
2019-May-17 22:30N 49°26' W 002°30'2 3.7
2019-May-17 22:01N 49°27' W 002°32'0 0.1
2019-May-17 21:30N 49°27' W 002°32'611.7
2019-May-17 21:00N 49°22' W 002°27'917.9
2019-May-17 20:30N 49°14' W 002°21'10 5.4
2019-May-17 18:40N 49°11' W 002°07'1 4.9
2019-May-17 18:30N 49°10' W 002°08'714.3
2019-May-17 18:00N 49°11' W 002°18'815.8
2019-May-17 17:31N 49°18' W 002°23'816.6
2019-May-17 17:01N 49°26' W 002°29'2 4.9
2019-May-17 16:30N 49°27' W 002°32'0 0.0
2019-May-17 16:00N 49°27' W 002°32'0 0.0
2019-May-17 15:30N 49°27' W 002°32'2 3.6
2019-May-17 15:00N 49°26' W 002°30'815.1
2019-May-17 14:31N 49°29' W 002°19'816.2
2019-May-17 14:01N 49°34' W 002°09'1020.5
2019-May-17 13:30N 49°44' W 002°04'918.6
2019-May-17 13:00N 49°53' W 002°03'918.3
2019-May-17 12:31N 50°02' W 002°01'1018.1
2019-May-17 11:57N 50°12' W 001°58'1417.8
2019-May-17 11:09N 50°27' W 001°56'317.8
2019-May-17 11:00N 50°29' W 001°55'918.0
2019-May-17 10:30N 50°38' W 001°54'510.1
2019-May-17 10:00N 50°42' W 001°58'1 1.4
2019-May-17 09:30N 50°42' W 001°59'0 0.0
2019-May-17 09:00N 50°42' W 001°59'0 0.0
2019-May-17 08:30N 50°42' W 001°59'0 0.0
2019-May-17 08:00N 50°42' W 001°59'0 0.2
2019-May-17 07:30N 50°42' W 001°60'3 5.4
2019-May-17 07:01N 50°41' W 001°56'4 8.7
2019-May-17 06:30N 50°37' W 001°52'611.3
2019-May-17 06:01N 50°31' W 001°53'711.3
2019-May-17 05:25N 50°25' W 001°55'511.1
2019-May-17 05:00N 50°20' W 001°56'611.2
2019-May-17 04:31N 50°15' W 001°57'6 9.9
2019-May-17 03:55N 50°09' W 001°59'4 9.8
2019-May-17 03:30N 50°05' W 002°00'5 9.8
2019-May-17 03:01N 50°00' W 002°01'510.3
2019-May-17 02:31N 49°55' W 002°03'5 9.9
2019-May-17 02:00N 49°50' W 002°05'5 9.5
2019-May-17 01:30N 49°46' W 002°06'4 7.5
2019-May-17 00:59N 49°42' W 002°06'3 6.6
2019-May-17 00:30N 49°39' W 002°08'4 7.7
2019-May-17 00:01N 49°35' W 002°10'4 7.9
2019-May-16 23:30N 49°32' W 002°14'4 8.8
2019-May-16 23:00N 49°30' W 002°19'612.3
2019-May-16 22:31N 49°26' W 002°27'4 7.1
2019-May-16 22:00N 49°27' W 002°32'0 0.0
2019-May-16 21:30N 49°27' W 002°32'4 7.1
2019-May-16 21:01N 49°25' W 002°29'917.6
2019-May-16 20:30N 49°17' W 002°23'816.9
2019-May-16 20:00N 49°10' W 002°15'5 9.3
2019-May-16 19:28N 49°11' W 002°07'0 0.0
2019-May-16 18:59N 49°11' W 002°07'0 0.6
2019-May-16 18:30N 49°10' W 002°07'4 7.8
2019-May-16 17:59N 49°10' W 002°13'510.9
2019-May-16 17:31N 49°13' W 002°20'612.3
2019-May-16 17:00N 49°18' W 002°24'714.7
2019-May-16 16:30N 49°25' W 002°29'3 6.3
2019-May-16 16:00N 49°27' W 002°32'0 0.0
2019-May-16 15:30N 49°27' W 002°32'2 3.7
2019-May-16 15:01N 49°26' W 002°29'612.6
2019-May-16 14:30N 49°29' W 002°21'815.7
2019-May-16 14:00N 49°33' W 002°11'917.2
2019-May-16 13:30N 49°41' W 002°04'1019.0
2019-May-16 13:00N 49°50' W 001°60'918.3
2019-May-16 12:31N 49°59' W 001°57'816.2
2019-May-16 12:01N 50°06' W 002°00'917.8
2019-May-16 11:30N 50°15' W 001°58'917.6
2019-May-16 11:01N 50°24' W 001°56'917.4
2019-May-16 10:30N 50°32' W 001°54'815.1
2019-May-16 10:01N 50°40' W 001°56'3 6.9
2019-May-16 09:31N 50°42' W 001°59'0 0.0
2019-May-16 09:01N 50°42' W 001°59'0 0.0
2019-May-16 08:31N 50°42' W 001°59'0 0.0
2019-May-16 08:01N 50°42' W 001°59'0 0.0
2019-May-16 07:31N 50°42' W 001°59'0 0.0
2019-May-16 07:01N 50°42' W 001°59'0 0.2
2019-May-16 06:31N 50°42' W 001°59'5 9.1
2019-May-16 06:00N 50°39' W 001°55'611.9
2019-May-16 05:31N 50°33' W 001°53'5 9.4
2019-May-16 04:55N 50°28' W 001°54'4 9.3
2019-May-16 04:30N 50°24' W 001°55'5 9.2
2019-May-16 04:00N 50°19' W 001°56'5 9.3
2019-May-16 03:25N 50°14' W 001°57'410.1
2019-May-16 03:00N 50°10' W 001°59'510.4
2019-May-16 02:31N 50°05' W 001°60'5 9.9
2019-May-16 02:01N 49°60' W 002°01'510.7
2019-May-16 01:31N 49°54' W 002°03'510.8
2019-May-16 01:01N 49°49' W 002°04'510.0
2019-May-16 00:30N 49°44' W 002°05'4 7.9
2019-May-16 00:00N 49°40' W 002°05'4 8.2
2019-May-15 23:31N 49°37' W 002°08'4 8.8
2019-May-15 23:00N 49°33' W 002°12'5 9.6
2019-May-15 22:31N 49°30' W 002°18'713.5
2019-May-15 22:00N 49°26' W 002°27'4 7.2
2019-May-15 21:30N 49°27' W 002°32'0 0.0
2019-May-15 21:00N 49°27' W 002°32'5 9.7
2019-May-15 20:30N 49°23' W 002°28'815.9
2019-May-15 20:01N 49°16' W 002°23'815.2
2019-May-15 19:30N 49°10' W 002°15'610.9
2019-May-15 19:00N 49°11' W 002°07'0 0.0
2019-May-15 18:31N 49°11' W 002°07'2 3.1
2019-May-15 18:01N 49°10' W 002°09'713.6
2019-May-15 17:30N 49°12' W 002°19'815.8
2019-May-15 17:01N 49°19' W 002°24'816.6
2019-May-15 16:31N 49°26' W 002°30'2 3.1
2019-May-15 16:00N 49°27' W 002°32'0 0.1
2019-May-15 15:30N 49°27' W 002°32'5 9.1
2019-May-15 15:01N 49°27' W 002°25'815.5
2019-May-15 14:31N 49°31' W 002°15'815.9
2019-May-15 14:01N 49°38' W 002°07'816.9
2019-May-15 13:31N 49°45' W 002°03'917.1
2019-May-15 13:01N 49°54' W 002°03'917.6
2019-May-15 12:31N 50°03' W 002°01'917.5
2019-May-15 12:00N 50°11' W 001°59'917.4
2019-May-15 11:31N 50°20' W 001°57'917.5
2019-May-15 11:01N 50°29' W 001°55'918.1
2019-May-15 10:31N 50°38' W 001°54'5 9.8
2019-May-15 10:00N 50°42' W 001°58'1 2.5
2019-May-15 09:30N 50°42' W 001°59'0 0.0
2019-May-15 09:00N 50°42' W 001°59'0 0.0
2019-May-15 08:30N 50°42' W 001°59'0 0.0
2019-May-15 08:00N 50°42' W 001°59'0 0.2
2019-May-15 07:30N 50°42' W 001°59'3 5.3
2019-May-15 07:01N 50°41' W 001°56'510.3
2019-May-15 06:30N 50°36' W 001°52'5 9.5
2019-May-15 06:01N 50°31' W 001°53'5 9.1
2019-May-15 05:31N 50°27' W 001°54'5 9.1
2019-May-15 05:00N 50°22' W 001°55'5 9.1
2019-May-15 04:31N 50°18' W 001°55'5 9.3
2019-May-15 04:01N 50°13' W 001°56'5 9.9
2019-May-15 03:30N 50°08' W 001°58'510.2
2019-May-15 03:00N 50°04' W 002°01'510.5
2019-May-15 02:30N 49°58' W 002°02'510.4
2019-May-15 02:00N 49°53' W 002°04'510.3
2019-May-15 01:30N 49°48' W 002°04'510.1
2019-May-15 00:59N 49°43' W 002°05'4 8.6
2019-May-15 00:30N 49°39' W 002°07'4 8.4
2019-May-15 00:01N 49°35' W 002°10'510.1
2019-May-14 23:30N 49°31' W 002°15'510.4
2019-May-14 23:00N 49°28' W 002°22'4 8.8
2019-May-14 22:31N 49°26' W 002°27'3 6.9
2019-May-14 22:00N 49°27' W 002°32'0 0.0
2019-May-14 21:30N 49°27' W 002°32'0 0.5
2019-May-14 21:00N 49°27' W 002°31'612.4
2019-May-14 20:30N 49°22' W 002°27'917.2
2019-May-14 20:00N 49°14' W 002°21'816.0
2019-May-14 19:29N 49°10' W 002°10'2 4.6
2019-May-14 18:59N 49°11' W 002°07'0 0.1
2019-May-14 18:30N 49°11' W 002°07'4 8.9
2019-May-14 18:00N 49°10' W 002°14'713.7
2019-May-14 17:31N 49°15' W 002°21'816.2
2019-May-14 17:01N 49°22' W 002°27'713.0
2019-May-14 16:30N 49°27' W 002°32'0 0.0
2019-May-14 16:00N 49°27' W 002°32'3 5.8
2019-May-14 15:30N 49°26' W 002°28'714.8
2019-May-14 15:00N 49°30' W 002°19'815.4
2019-May-14 14:31N 49°35' W 002°10'814.8
2019-May-14 13:58N 49°43' W 002°05'715.2
2019-May-14 13:30N 49°50' W 002°04'816.9
2019-May-14 13:01N 49°58' W 002°03'817.0
2019-May-14 12:30N 50°07' W 002°02'917.2
2019-May-14 12:01N 50°15' W 002°00'917.3
2019-May-14 11:31N 50°24' W 001°58'917.7
2019-May-14 11:00N 50°32' W 001°55'814.9
2019-May-14 10:30N 50°40' W 001°55'4 7.5
2019-May-14 10:01N 50°42' W 001°59'0 0.0
2019-May-14 09:30N 50°42' W 001°59'0 0.0
2019-May-14 09:00N 50°42' W 001°59'0 0.0
2019-May-14 08:30N 50°42' W 001°59'0 0.0
2019-May-14 08:00N 50°42' W 001°59'0 0.0
2019-May-14 07:30N 50°42' W 001°59'3 5.1
2019-May-14 07:00N 50°41' W 001°57'3 6.5
2019-May-14 06:30N 50°38' W 001°54'816.1
2019-May-14 06:01N 50°30' W 001°54'815.1
2019-May-14 05:31N 50°23' W 001°56'611.9
2019-May-14 05:01N 50°17' W 001°57'612.1
2019-May-14 04:31N 50°11' W 001°58'611.9
2019-May-14 04:01N 50°05' W 001°59'510.6
2019-May-14 03:31N 49°59' W 002°00'510.9
2019-May-14 03:01N 49°54' W 002°01'611.4
2019-May-14 02:31N 49°48' W 002°02'713.1
2019-May-14 01:58N 49°42' W 002°05'613.1
2019-May-14 01:30N 49°36' W 002°09'612.5
2019-May-14 01:01N 49°31' W 002°15'611.8
2019-May-14 00:31N 49°28' W 002°23'510.7
2019-May-14 00:01N 49°27' W 002°31'1 1.4
2019-May-13 23:30N 49°27' W 002°32'0 0.0
2019-May-13 23:00N 49°27' W 002°32'5 9.6
2019-May-13 22:31N 49°23' W 002°28'816.5
2019-May-13 22:01N 49°16' W 002°22'815.1
2019-May-13 21:30N 49°10' W 002°15'5 9.2
2019-May-13 20:56N 49°11' W 002°07'0 0.0
2019-May-13 20:30N 49°11' W 002°07'0 0.0
2019-May-13 20:00N 49°11' W 002°07'0 0.0
2019-May-13 19:30N 49°11' W 002°07'0 0.0
2019-May-13 19:00N 49°11' W 002°07'0 0.0
2019-May-13 18:16N 49°11' W 002°07'0 0.1
2019-May-13 17:56N 49°11' W 002°07'2 4.8
2019-May-13 17:27N 49°10' W 002°10'511.5
2019-May-13 17:01N 49°11' W 002°18'510.9
2019-May-13 16:31N 49°16' W 002°20'816.0
2019-May-13 16:01N 49°24' W 002°16'815.5
2019-May-13 15:31N 49°31' W 002°12'815.4
2019-May-13 15:00N 49°38' W 002°08'713.6
2019-May-13 14:30N 49°45' W 002°05'815.2
2019-May-13 14:00N 49°52' W 002°04'916.2
2019-May-13 13:28N 50°01' W 002°02'816.4
2019-May-13 13:00N 50°08' W 001°60'816.7
2019-May-13 12:30N 50°17' W 001°58'916.8
2019-May-13 12:00N 50°25' W 001°56'817.0
2019-May-13 11:30N 50°33' W 001°54'612.9
2019-May-13 11:00N 50°40' W 001°56'4 7.4
2019-May-13 10:30N 50°42' W 001°59'0 0.1
2019-May-13 10:00N 50°42' W 001°59'0 0.0
2019-May-13 09:30N 50°42' W 001°59'0 0.0
2019-May-13 09:00N 50°42' W 001°59'0 0.0
2019-May-13 08:30N 50°42' W 001°59'0 0.0
2019-May-13 08:00N 50°42' W 001°59'2 4.7
2019-May-13 07:31N 50°41' W 001°57'3 6.6
2019-May-13 07:00N 50°38' W 001°53'510.7
2019-May-13 06:31N 50°33' W 001°53'5 9.2
2019-May-13 06:00N 50°28' W 001°54'7 9.1
2019-May-13 05:13N 50°21' W 001°56'2 9.0
2019-May-13 05:00N 50°20' W 001°56'5 9.2
2019-May-13 04:30N 50°15' W 001°57'5 9.5
2019-May-13 04:01N 50°10' W 001°58'5 9.8
2019-May-13 03:28N 50°05' W 001°58'510.1
2019-May-13 02:58N 50°00' W 001°59'612.6
2019-May-13 02:30N 49°54' W 002°01'612.2
2019-May-13 01:58N 49°48' W 002°02'612.4
2019-May-13 01:30N 49°42' W 002°05'611.5
2019-May-13 01:00N 49°37' W 002°06'510.4
2019-May-13 00:31N 49°32' W 002°08'5 9.9
2019-May-13 00:00N 49°27' W 002°12'3 6.9
2019-May-12 23:31N 49°25' W 002°15'4 8.4
2019-May-12 23:01N 49°21' W 002°18'510.4
2019-May-12 22:31N 49°16' W 002°21'6 9.4
2019-May-12 21:55N 49°11' W 002°18'7 6.1
2019-May-12 20:44N 49°11' W 002°07'0 0.0
2019-May-12 19:50N 49°11' W 002°07'0 0.2
2019-May-12 19:30N 49°11' W 002°07'612.5
2019-May-12 19:00N 49°10' W 002°16'510.1
2019-May-12 18:30N 49°11' W 002°24'3 6.7
2019-May-12 18:00N 49°13' W 002°28'5 9.4
2019-May-12 17:30N 49°18' W 002°28'5 9.6
2019-May-12 17:00N 49°22' W 002°29'510.4
2019-May-12 16:31N 49°27' W 002°31'0 0.7
2019-May-12 16:00N 49°27' W 002°32'0 0.0
2019-May-12 15:31N 49°27' W 002°32'0 0.0
2019-May-12 15:01N 49°27' W 002°32'3 6.1
2019-May-12 14:30N 49°26' W 002°28'816.1
2019-May-12 14:01N 49°30' W 002°18'815.2
2019-May-12 13:30N 49°36' W 002°10'714.0
2019-May-12 13:00N 49°42' W 002°04'713.1
2019-May-12 12:28N 49°49' W 001°60'714.8
2019-May-12 12:00N 49°54' W 001°53'815.7
2019-May-12 11:30N 50°01' W 001°47'916.2
2019-May-12 10:59N 50°07' W 001°38'2217.0
2019-May-12 09:39N 50°26' W 001°19'317.4
2019-May-12 09:30N 50°28' W 001°17'917.8
2019-May-12 09:01N 50°36' W 001°09'816.2
2019-May-12 08:31N 50°43' W 001°03'612.2
2019-May-12 08:00N 50°49' W 001°07'1 1.3
2019-May-12 07:30N 50°49' W 001°06'0 0.0
2019-May-12 07:00N 50°49' W 001°06'0 0.0
2019-May-12 06:30N 50°49' W 001°06'0 0.0
2019-May-12 06:00N 50°49' W 001°06'0 0.0
2019-May-12 05:30N 50°49' W 001°06'0 0.8
2019-May-12 05:00N 50°49' W 001°06'510.4
2019-May-12 04:30N 50°44' W 001°04'714.0
2019-May-12 04:00N 50°37' W 001°07'815.4
2019-May-12 03:30N 50°31' W 001°14'816.3
2019-May-12 03:00N 50°25' W 001°22'815.7
2019-May-12 02:30N 50°18' W 001°30'612.6
2019-May-12 02:00N 50°13' W 001°35'612.1
2019-May-12 01:30N 50°07' W 001°37'612.9
2019-May-12 01:00N 50°02' W 001°43'713.4
2019-May-12 00:30N 49°56' W 001°49'713.3
2019-May-12 00:00N 49°51' W 001°54'714.2
2019-May-11 23:31N 49°45' W 002°00'1019.5
2019-May-11 23:00N 49°36' W 002°07'918.1
2019-May-11 22:30N 49°28' W 002°13'917.3
2019-May-11 22:01N 49°20' W 002°18'816.2
2019-May-11 21:31N 49°12' W 002°18'713.7
2019-May-11 21:01N 49°10' W 002°08'1 1.7
2019-May-11 20:19N 49°11' W 002°07'0 0.0
2019-May-11 19:43N 49°11' W 002°07'0 0.0
2019-May-11 19:01N 49°11' W 002°07'0 0.0
2019-May-11 18:49N 49°11' W 002°07'0 0.1
2019-May-11 18:19N 49°11' W 002°07'1 3.9
2019-May-11 17:59N 49°10' W 002°09'613.3
2019-May-11 17:31N 49°11' W 002°18'714.5
2019-May-11 17:00N 49°17' W 002°23'713.5
2019-May-11 16:31N 49°24' W 002°28'5 9.1
2019-May-11 16:01N 49°27' W 002°32'0 0.0
2019-May-11 15:31N 49°27' W 002°32'0 0.0
2019-May-11 15:01N 49°27' W 002°32'3 6.5
2019-May-11 14:30N 49°26' W 002°27'816.8
2019-May-11 14:01N 49°31' W 002°17'815.7
2019-May-11 13:28N 49°37' W 002°08'714.7
2019-May-11 13:00N 49°43' W 002°03'713.1
2019-May-11 12:30N 49°48' W 001°56'714.4
2019-May-11 12:00N 49°54' W 001°50'714.9
2019-May-11 11:30N 49°60' W 001°44'815.6
2019-May-11 11:00N 50°07' W 001°37'816.0
2019-May-11 10:30N 50°13' W 001°30'916.4
2019-May-11 09:57N 50°21' W 001°22'716.8
2019-May-11 09:30N 50°27' W 001°16'917.1
2019-May-11 09:01N 50°34' W 001°08'917.1
2019-May-11 08:30N 50°41' W 001°01'714.8
2019-May-11 08:00N 50°48' W 001°07'1 2.8
2019-May-11 07:30N 50°49' W 001°06'0 0.0
2019-May-11 07:00N 50°49' W 001°06'0 0.0
2019-May-11 06:30N 50°49' W 001°06'0 0.0
2019-May-11 06:00N 50°49' W 001°06'0 0.0
2019-May-11 05:30N 50°49' W 001°06'1 1.3
2019-May-11 05:00N 50°49' W 001°07'611.3
2019-May-11 04:30N 50°44' W 001°02'713.9
2019-May-11 04:00N 50°37' W 001°07'714.4
2019-May-11 03:31N 50°31' W 001°14'812.4
2019-May-11 02:52N 50°25' W 001°21'412.0
2019-May-11 02:30N 50°21' W 001°25'612.3
2019-May-11 02:00N 50°17' W 001°31'611.9
2019-May-11 01:30N 50°11' W 001°34'612.4
2019-May-11 01:00N 50°06' W 001°39'612.9
2019-May-11 00:31N 50°00' W 001°44'612.7
2019-May-11 00:00N 49°55' W 001°49'612.8
2019-May-10 23:31N 49°49' W 001°55'816.4
2019-May-10 23:01N 49°43' W 002°02'1020.0
2019-May-10 22:30N 49°34' W 002°09'918.5
2019-May-10 22:01N 49°25' W 002°15'918.1
2019-May-10 21:31N 49°17' W 002°20'714.3
2019-May-10 21:00N 49°10' W 002°16'6 5.5
2019-May-10 19:55N 49°11' W 002°07'0 0.0
2019-May-10 18:43N 49°11' W 002°07'0 0.0
2019-May-10 18:27N 49°11' W 002°07'4 9.0
2019-May-10 18:00N 49°10' W 002°13'816.8
2019-May-10 17:31N 49°16' W 002°22'917.2
2019-May-10 17:01N 49°23' W 002°28'  
Track history (hours):
 
Tides and Currents Weather Stations Pressure Air Temp Water Temp Dewpoint Dewpoint Depression Visibility Wind Speed Wind Dir Waves Ship Positions

Commodore Clipper

Operator: Condor Marine Services

Last reported at 2019-May-20 16:30 UTC. Time now 2019-May-20 16:38 UTC.
Position N 49°27' W 002°31'.

Length 130 m; draft 4.8 m.

Type: Ship. MMSI: 308094000.

Date/timePositionNaut miles runAvg speedWind from/ knotsBaromVisibWave heightAir tempDewpointWater temp
2019-May-20 16:30N 49°27' W 002°31'0 0.5
2019-May-20 16:01N 49°27' W 002°32'0 0.0
2019-May-20 15:31N 49°27' W 002°32'0 0.0
2019-May-20 15:01N 49°27' W 002°32'4 8.2
2019-May-20 14:30N 49°27' W 002°25'1019.0
2019-May-20 14:00N 49°32' W 002°14'1119.8
2019-May-20 13:27N 49°41' W 002°03'1021.1
2019-May-20 12:59N 49°49' W 001°55'1717.9
2019-May-20 12:04N 50°03' W 001°41'1216.4
2019-May-20 11:19N 50°12' W 001°28'616.0
2019-May-20 10:55N 50°17' W 001°22'715.6
2019-May-20 10:28N 50°23' W 001°16'715.1
2019-May-20 10:00N 50°29' W 001°10'613.0
2019-May-20 09:30N 50°35' W 001°09'714.3
2019-May-20 09:00N 50°41' W 001°03'713.9
2019-May-20 08:30N 50°48' W 001°07'1 2.2
2019-May-20 08:00N 50°49' W 001°06'0 0.0
2019-May-20 07:30N 50°49' W 001°06'0 0.0
2019-May-20 07:00N 50°49' W 001°06'0 0.0
2019-May-20 06:30N 50°49' W 001°06'0 0.0
2019-May-20 06:00N 50°49' W 001°06'0 0.0
2019-May-20 05:30N 50°49' W 001°06'1 2.3
2019-May-20 05:00N 50°48' W 001°07'511.0
2019-May-20 04:30N 50°43' W 001°02'611.6
2019-May-20 04:00N 50°37' W 001°04'713.6
2019-May-20 03:30N 50°32' W 001°10'913.3
2019-May-20 02:50N 50°24' W 001°18'513.9
2019-May-20 02:30N 50°20' W 001°22'1511.2
2019-May-20 01:09N 50°09' W 001°37'710.3
2019-May-20 00:29N 50°03' W 001°43'510.9
2019-May-20 00:00N 49°58' W 001°47'915.2
2019-May-19 23:25N 49°51' W 001°54'816.9
2019-May-19 22:58N 49°45' W 002°01'816.6
2019-May-19 22:31N 49°38' W 002°07'916.9
2019-May-19 22:00N 49°32' W 002°15'917.4
2019-May-19 21:31N 49°26' W 002°26'4 7.7
2019-May-19 21:00N 49°27' W 002°32'0 0.0
2019-May-19 20:30N 49°27' W 002°32'0 0.0
2019-May-19 20:00N 49°27' W 002°32'1 2.6
2019-May-19 19:30N 49°27' W 002°30'816.2
2019-May-19 19:01N 49°20' W 002°25'917.3
2019-May-19 18:30N 49°12' W 002°19'714.6
2019-May-19 18:00N 49°10' W 002°08'1 0.8
2019-May-19 16:44N 49°11' W 002°07'0 0.0
2019-May-19 15:52N 49°11' W 002°07'4 9.8
2019-May-19 15:30N 49°10' W 002°12'815.3
2019-May-19 15:00N 49°13' W 002°23'714.0
2019-May-19 14:31N 49°20' W 002°19'612.5
2019-May-19 14:00N 49°25' W 002°13'714.3
2019-May-19 13:30N 49°32' W 002°10'917.3
2019-May-19 13:00N 49°39' W 002°04'2419.4
2019-May-19 11:45N 49°58' W 001°40'417.4
2019-May-19 11:30N 50°02' W 001°36'1017.0
2019-May-19 10:53N 50°11' W 001°30'1316.3
2019-May-19 10:04N 50°23' W 001°20'116.2
2019-May-19 10:00N 50°24' W 001°19'815.7
2019-May-19 09:30N 50°31' W 001°14'714.7
2019-May-19 09:00N 50°37' W 001°07'714.1
2019-May-19 08:31N 50°44' W 001°04'510.3
2019-May-19 08:01N 50°49' W 001°06'0 0.8
2019-May-19 07:31N 50°49' W 001°06'0 0.0
2019-May-19 07:01N 50°49' W 001°06'0 0.0
2019-May-19 06:31N 50°49' W 001°06'0 0.5
2019-May-19 06:00N 50°49' W 001°06'4 7.5
2019-May-19 05:30N 50°45' W 001°05'612.4
2019-May-19 05:01N 50°40' W 000°59'816.7
2019-May-19 04:30N 50°34' W 001°07'916.0
2019-May-19 03:56N 50°27' W 001°16'1115.3
2019-May-19 03:12N 50°19' W 001°29'514.8
2019-May-19 02:52N 50°15' W 001°33'514.6
2019-May-19 02:31N 50°11' W 001°38'713.8
2019-May-19 02:00N 50°05' W 001°45'713.8
2019-May-19 01:31N 49°60' W 001°51'714.1
2019-May-19 01:00N 49°53' W 001°57'713.7
2019-May-19 00:30N 49°48' W 002°02'612.2
2019-May-19 00:01N 49°42' W 002°05'713.4
2019-May-18 23:30N 49°36' W 002°09'815.2
2019-May-18 23:00N 49°30' W 002°17'815.3
2019-May-18 22:31N 49°26' W 002°27'3 6.9
2019-May-18 22:00N 49°27' W 002°32'0 0.0
2019-May-18 21:30N 49°27' W 002°32'510.8
2019-May-18 21:00N 49°23' W 002°27'918.0
2019-May-18 20:30N 49°15' W 002°21'1016.6
2019-May-18 19:54N 49°10' W 002°08'1 0.7
2019-May-18 18:44N 49°11' W 002°07'1 4.4
2019-May-18 18:31N 49°10' W 002°08'714.9
2019-May-18 18:00N 49°12' W 002°19'816.7
2019-May-18 17:31N 49°19' W 002°24'816.8
2019-May-18 17:00N 49°27' W 002°30'1 2.4
2019-May-18 16:30N 49°27' W 002°32'0 0.0
2019-May-18 16:00N 49°27' W 002°32'0 0.0
2019-May-18 15:30N 49°27' W 002°32'0 0.0
2019-May-18 15:00N 49°27' W 002°32'2 4.1
2019-May-18 14:30N 49°26' W 002°29'713.3
2019-May-18 14:00N 49°29' W 002°20'612.0
2019-May-18 13:31N 49°32' W 002°12'611.9
2019-May-18 13:00N 49°36' W 002°06'1018.2
2019-May-18 12:28N 49°46' W 002°03'918.5
2019-May-18 11:57N 49°55' W 002°01'917.9
2019-May-18 11:27N 50°04' W 001°60'817.6
2019-May-18 11:00N 50°12' W 001°56'1117.3
2019-May-18 10:21N 50°23' W 001°52'617.0
2019-May-18 10:00N 50°29' W 001°51'816.9
2019-May-18 09:30N 50°37' W 001°53'611.3
2019-May-18 09:00N 50°42' W 001°57'1 2.9
2019-May-18 08:30N 50°42' W 001°59'0 0.0
2019-May-18 08:00N 50°42' W 001°59'0 0.0
2019-May-18 07:30N 50°42' W 001°59'0 0.0
2019-May-18 07:00N 50°42' W 001°59'1 1.1
2019-May-18 06:30N 50°42' W 001°59'5 9.8
2019-May-18 06:00N 50°39' W 001°53'510.2
2019-May-18 05:30N 50°34' W 001°51'911.4
2019-May-18 04:43N 50°25' W 001°55'411.4
2019-May-18 04:22N 50°21' W 001°56'1111.2
2019-May-18 03:24N 50°11' W 001°59'410.7
2019-May-18 03:01N 50°07' W 001°60'510.8
2019-May-18 02:31N 50°01' W 002°02'510.1
2019-May-18 02:00N 49°56' W 002°04'5 9.9
2019-May-18 01:28N 49°51' W 002°05'4 9.6
2019-May-18 01:00N 49°47' W 002°06'4 7.6
2019-May-18 00:30N 49°43' W 002°06'4 7.8
2019-May-18 00:00N 49°39' W 002°06'713.2
2019-May-17 23:30N 49°33' W 002°12'714.9
2019-May-17 23:01N 49°29' W 002°21'612.7
2019-May-17 22:30N 49°26' W 002°30'2 3.7
2019-May-17 22:01N 49°27' W 002°32'0 0.1
2019-May-17 21:30N 49°27' W 002°32'611.7
2019-May-17 21:00N 49°22' W 002°27'917.9
2019-May-17 20:30N 49°14' W 002°21'10 5.4
2019-May-17 18:40N 49°11' W 002°07'1 4.9
2019-May-17 18:30N 49°10' W 002°08'714.3
2019-May-17 18:00N 49°11' W 002°18'815.8
2019-May-17 17:31N 49°18' W 002°23'816.6
2019-May-17 17:01N 49°26' W 002°29'2 4.9
2019-May-17 16:30N 49°27' W 002°32'0 0.0
2019-May-17 16:00N 49°27' W 002°32'0 0.0
2019-May-17 15:30N 49°27' W 002°32'2 3.6
2019-May-17 15:00N 49°26' W 002°30'815.1
2019-May-17 14:31N 49°29' W 002°19'816.2
2019-May-17 14:01N 49°34' W 002°09'1020.5
2019-May-17 13:30N 49°44' W 002°04'918.6
2019-May-17 13:00N 49°53' W 002°03'918.3
2019-May-17 12:31N 50°02' W 002°01'1018.1
2019-May-17 11:57N 50°12' W 001°58'1417.8
2019-May-17 11:09N 50°27' W 001°56'317.8
2019-May-17 11:00N 50°29' W 001°55'918.0
2019-May-17 10:30N 50°38' W 001°54'510.1
2019-May-17 10:00N 50°42' W 001°58'1 1.4
2019-May-17 09:30N 50°42' W 001°59'0 0.0
2019-May-17 09:00N 50°42' W 001°59'0 0.0
2019-May-17 08:30N 50°42' W 001°59'0 0.0
2019-May-17 08:00N 50°42' W 001°59'0 0.2
2019-May-17 07:30N 50°42' W 001°60'3 5.4
2019-May-17 07:01N 50°41' W 001°56'4 8.7
2019-May-17 06:30N 50°37' W 001°52'611.3
2019-May-17 06:01N 50°31' W 001°53'711.3
2019-May-17 05:25N 50°25' W 001°55'511.1
2019-May-17 05:00N 50°20' W 001°56'611.2
2019-May-17 04:31N 50°15' W 001°57'6 9.9
2019-May-17 03:55N 50°09' W 001°59'4 9.8
2019-May-17 03:30N 50°05' W 002°00'5 9.8
2019-May-17 03:01N 50°00' W 002°01'510.3
2019-May-17 02:31N 49°55' W 002°03'5 9.9
2019-May-17 02:00N 49°50' W 002°05'5 9.5
2019-May-17 01:30N 49°46' W 002°06'4 7.5
2019-May-17 00:59N 49°42' W 002°06'3 6.6
2019-May-17 00:30N 49°39' W 002°08'4 7.7
2019-May-17 00:01N 49°35' W 002°10'4 7.9
2019-May-16 23:30N 49°32' W 002°14'4 8.8
2019-May-16 23:00N 49°30' W 002°19'612.3
2019-May-16 22:31N 49°26' W 002°27'4 7.1
2019-May-16 22:00N 49°27' W 002°32'0 0.0
2019-May-16 21:30N 49°27' W 002°32'4 7.1
2019-May-16 21:01N 49°25' W 002°29'917.6
2019-May-16 20:30N 49°17' W 002°23'816.9
2019-May-16 20:00N 49°10' W 002°15'5 9.3
2019-May-16 19:28N 49°11' W 002°07'0 0.0
2019-May-16 18:59N 49°11' W 002°07'0 0.6
2019-May-16 18:30N 49°10' W 002°07'4 7.8
2019-May-16 17:59N 49°10' W 002°13'510.9
2019-May-16 17:31N 49°13' W 002°20'612.3
2019-May-16 17:00N 49°18' W 002°24'714.7
2019-May-16 16:30N 49°25' W 002°29'3 6.3
2019-May-16 16:00N 49°27' W 002°32'0 0.0
2019-May-16 15:30N 49°27' W 002°32'2 3.7
2019-May-16 15:01N 49°26' W 002°29'612.6
2019-May-16 14:30N 49°29' W 002°21'815.7
2019-May-16 14:00N 49°33' W 002°11'917.2
2019-May-16 13:30N 49°41' W 002°04'1019.0
2019-May-16 13:00N 49°50' W 001°60'918.3
2019-May-16 12:31N 49°59' W 001°57'816.2
2019-May-16 12:01N 50°06' W 002°00'917.8
2019-May-16 11:30N 50°15' W 001°58'917.6
2019-May-16 11:01N 50°24' W 001°56'917.4
2019-May-16 10:30N 50°32' W 001°54'815.1
2019-May-16 10:01N 50°40' W 001°56'3 6.9
2019-May-16 09:31N 50°42' W 001°59'0 0.0
2019-May-16 09:01N 50°42' W 001°59'0 0.0
2019-May-16 08:31N 50°42' W 001°59'0 0.0
2019-May-16 08:01N 50°42' W 001°59'0 0.0
2019-May-16 07:31N 50°42' W 001°59'0 0.0
2019-May-16 07:01N 50°42' W 001°59'0 0.2
2019-May-16 06:31N 50°42' W 001°59'5 9.1
2019-May-16 06:00N 50°39' W 001°55'611.9
2019-May-16 05:31N 50°33' W 001°53'5 9.4
2019-May-16 04:55N 50°28' W 001°54'4 9.3
2019-May-16 04:30N 50°24' W 001°55'5 9.2
2019-May-16 04:00N 50°19' W 001°56'5 9.3
2019-May-16 03:25N 50°14' W 001°57'410.1
2019-May-16 03:00N 50°10' W 001°59'510.4
2019-May-16 02:31N 50°05' W 001°60'5 9.9
2019-May-16 02:01N 49°60' W 002°01'510.7
2019-May-16 01:31N 49°54' W 002°03'510.8
2019-May-16 01:01N 49°49' W 002°04'510.0
2019-May-16 00:30N 49°44' W 002°05'4 7.9
2019-May-16 00:00N 49°40' W 002°05'4 8.2
2019-May-15 23:31N 49°37' W 002°08'4 8.8
2019-May-15 23:00N 49°33' W 002°12'5 9.6
2019-May-15 22:31N 49°30' W 002°18'713.5
2019-May-15 22:00N 49°26' W 002°27'4 7.2
2019-May-15 21:30N 49°27' W 002°32'0 0.0
2019-May-15 21:00N 49°27' W 002°32'5 9.7
2019-May-15 20:30N 49°23' W 002°28'815.9
2019-May-15 20:01N 49°16' W 002°23'815.2
2019-May-15 19:30N 49°10' W 002°15'610.9
2019-May-15 19:00N 49°11' W 002°07'0 0.0
2019-May-15 18:31N 49°11' W 002°07'2 3.1
2019-May-15 18:01N 49°10' W 002°09'713.6
2019-May-15 17:30N 49°12' W 002°19'815.8
2019-May-15 17:01N 49°19' W 002°24'816.6
2019-May-15 16:31N 49°26' W 002°30'2 3.1
2019-May-15 16:00N 49°27' W 002°32'0 0.1
2019-May-15 15:30N 49°27' W 002°32'5 9.1
2019-May-15 15:01N 49°27' W 002°25'815.5
2019-May-15 14:31N 49°31' W 002°15'815.9
2019-May-15 14:01N 49°38' W 002°07'816.9
2019-May-15 13:31N 49°45' W 002°03'917.1
2019-May-15 13:01N 49°54' W 002°03'917.6
2019-May-15 12:31N 50°03' W 002°01'917.5
2019-May-15 12:00N 50°11' W 001°59'917.4
2019-May-15 11:31N 50°20' W 001°57'917.5
2019-May-15 11:01N 50°29' W 001°55'918.1
2019-May-15 10:31N 50°38' W 001°54'5 9.8
2019-May-15 10:00N 50°42' W 001°58'1 2.5
2019-May-15 09:30N 50°42' W 001°59'0 0.0
2019-May-15 09:00N 50°42' W 001°59'0 0.0
2019-May-15 08:30N 50°42' W 001°59'0 0.0
2019-May-15 08:00N 50°42' W 001°59'0 0.2
2019-May-15 07:30N 50°42' W 001°59'3 5.3
2019-May-15 07:01N 50°41' W 001°56'510.3
2019-May-15 06:30N 50°36' W 001°52'5 9.5
2019-May-15 06:01N 50°31' W 001°53'5 9.1
2019-May-15 05:31N 50°27' W 001°54'5 9.1
2019-May-15 05:00N 50°22' W 001°55'5 9.1
2019-May-15 04:31N 50°18' W 001°55'5 9.3
2019-May-15 04:01N 50°13' W 001°56'5 9.9
2019-May-15 03:30N 50°08' W 001°58'510.2
2019-May-15 03:00N 50°04' W 002°01'510.5
2019-May-15 02:30N 49°58' W 002°02'510.4
2019-May-15 02:00N 49°53' W 002°04'510.3
2019-May-15 01:30N 49°48' W 002°04'510.1
2019-May-15 00:59N 49°43' W 002°05'4 8.6
2019-May-15 00:30N 49°39' W 002°07'4 8.4
2019-May-15 00:01N 49°35' W 002°10'510.1
2019-May-14 23:30N 49°31' W 002°15'510.4
2019-May-14 23:00N 49°28' W 002°22'4 8.8
2019-May-14 22:31N 49°26' W 002°27'3 6.9
2019-May-14 22:00N 49°27' W 002°32'0 0.0
2019-May-14 21:30N 49°27' W 002°32'0 0.5
2019-May-14 21:00N 49°27' W 002°31'612.4
2019-May-14 20:30N 49°22' W 002°27'917.2
2019-May-14 20:00N 49°14' W 002°21'816.0
2019-May-14 19:29N 49°10' W 002°10'2 4.6
2019-May-14 18:59N 49°11' W 002°07'0 0.1
2019-May-14 18:30N 49°11' W 002°07'4 8.9
2019-May-14 18:00N 49°10' W 002°14'713.7
2019-May-14 17:31N 49°15' W 002°21'816.2
2019-May-14 17:01N 49°22' W 002°27'713.0
2019-May-14 16:30N 49°27' W 002°32'0 0.0
2019-May-14 16:00N 49°27' W 002°32'3 5.8
2019-May-14 15:30N 49°26' W 002°28'714.8
2019-May-14 15:00N 49°30' W 002°19'815.4
2019-May-14 14:31N 49°35' W 002°10'814.8
2019-May-14 13:58N 49°43' W 002°05'715.2
2019-May-14 13:30N 49°50' W 002°04'816.9
2019-May-14 13:01N 49°58' W 002°03'817.0
2019-May-14 12:30N 50°07' W 002°02'917.2
2019-May-14 12:01N 50°15' W 002°00'917.3
2019-May-14 11:31N 50°24' W 001°58'917.7
2019-May-14 11:00N 50°32' W 001°55'814.9
2019-May-14 10:30N 50°40' W 001°55'4 7.5
2019-May-14 10:01N 50°42' W 001°59'0 0.0
2019-May-14 09:30N 50°42' W 001°59'0 0.0
2019-May-14 09:00N 50°42' W 001°59'0 0.0
2019-May-14 08:30N 50°42' W 001°59'0 0.0
2019-May-14 08:00N 50°42' W 001°59'0 0.0
2019-May-14 07:30N 50°42' W 001°59'3 5.1
2019-May-14 07:00N 50°41' W 001°57'3 6.5
2019-May-14 06:30N 50°38' W 001°54'816.1
2019-May-14 06:01N 50°30' W 001°54'815.1
2019-May-14 05:31N 50°23' W 001°56'611.9
2019-May-14 05:01N 50°17' W 001°57'612.1
2019-May-14 04:31N 50°11' W 001°58'611.9
2019-May-14 04:01N 50°05' W 001°59'510.6
2019-May-14 03:31N 49°59' W 002°00'510.9
2019-May-14 03:01N 49°54' W 002°01'611.4
2019-May-14 02:31N 49°48' W 002°02'713.1
2019-May-14 01:58N 49°42' W 002°05'613.1
2019-May-14 01:30N 49°36' W 002°09'612.5
2019-May-14 01:01N 49°31' W 002°15'611.8
2019-May-14 00:31N 49°28' W 002°23'510.7
2019-May-14 00:01N 49°27' W 002°31'1 1.4
2019-May-13 23:30N 49°27' W 002°32'0 0.0
2019-May-13 23:00N 49°27' W 002°32'5 9.6
2019-May-13 22:31N 49°23' W 002°28'816.5
2019-May-13 22:01N 49°16' W 002°22'815.1
2019-May-13 21:30N 49°10' W 002°15'5 9.2
2019-May-13 20:56N 49°11' W 002°07'0 0.0
2019-May-13 20:30N 49°11' W 002°07'0 0.0
2019-May-13 20:00N 49°11' W 002°07'0 0.0
2019-May-13 19:30N 49°11' W 002°07'0 0.0
2019-May-13 19:00N 49°11' W 002°07'0 0.0
2019-May-13 18:16N 49°11' W 002°07'0 0.1
2019-May-13 17:56N 49°11' W 002°07'2 4.8
2019-May-13 17:27N 49°10' W 002°10'511.5
2019-May-13 17:01N 49°11' W 002°18'510.9
2019-May-13 16:31N 49°16' W 002°20'816.0
2019-May-13 16:01N 49°24' W 002°16'815.5
2019-May-13 15:31N 49°31' W 002°12'815.4
2019-May-13 15:00N 49°38' W 002°08'713.6
2019-May-13 14:30N 49°45' W 002°05'815.2
2019-May-13 14:00N 49°52' W 002°04'916.2
2019-May-13 13:28N 50°01' W 002°02'816.4
2019-May-13 13:00N 50°08' W 001°60'816.7
2019-May-13 12:30N 50°17' W 001°58'916.8
2019-May-13 12:00N 50°25' W 001°56'817.0
2019-May-13 11:30N 50°33' W 001°54'612.9
2019-May-13 11:00N 50°40' W 001°56'4 7.4
2019-May-13 10:30N 50°42' W 001°59'0 0.1
2019-May-13 10:00N 50°42' W 001°59'0 0.0
2019-May-13 09:30N 50°42' W 001°59'0 0.0
2019-May-13 09:00N 50°42' W 001°59'0 0.0
2019-May-13 08:30N 50°42' W 001°59'0 0.0
2019-May-13 08:00N 50°42' W 001°59'2 4.7
2019-May-13 07:31N 50°41' W 001°57'3 6.6
2019-May-13 07:00N 50°38' W 001°53'510.7
2019-May-13 06:31N 50°33' W 001°53'5 9.2
2019-May-13 06:00N 50°28' W 001°54'7 9.1
2019-May-13 05:13N 50°21' W 001°56'2 9.0
2019-May-13 05:00N 50°20' W 001°56'5 9.2
2019-May-13 04:30N 50°15' W 001°57'5 9.5
2019-May-13 04:01N 50°10' W 001°58'5 9.8
2019-May-13 03:28N 50°05' W 001°58'510.1
2019-May-13 02:58N 50°00' W 001°59'612.6
2019-May-13 02:30N 49°54' W 002°01'612.2
2019-May-13 01:58N 49°48' W 002°02'612.4
2019-May-13 01:30N 49°42' W 002°05'611.5
2019-May-13 01:00N 49°37' W 002°06'510.4
2019-May-13 00:31N 49°32' W 002°08'5 9.9
2019-May-13 00:00N 49°27' W 002°12'3 6.9
2019-May-12 23:31N 49°25' W 002°15'4 8.4
2019-May-12 23:01N 49°21' W 002°18'510.4
2019-May-12 22:31N 49°16' W 002°21'6 9.4
2019-May-12 21:55N 49°11' W 002°18'7 6.1
2019-May-12 20:44N 49°11' W 002°07'0 0.0
2019-May-12 19:50N 49°11' W 002°07'0 0.2
2019-May-12 19:30N 49°11' W 002°07'612.5
2019-May-12 19:00N 49°10' W 002°16'510.1
2019-May-12 18:30N 49°11' W 002°24'3 6.7
2019-May-12 18:00N 49°13' W 002°28'5 9.4
2019-May-12 17:30N 49°18' W 002°28'5 9.6
2019-May-12 17:00N 49°22' W 002°29'510.4
2019-May-12 16:31N 49°27' W 002°31'0 0.7
2019-May-12 16:00N 49°27' W 002°32'0 0.0
2019-May-12 15:31N 49°27' W 002°32'0 0.0
2019-May-12 15:01N 49°27' W 002°32'3 6.1
2019-May-12 14:30N 49°26' W 002°28'816.1
2019-May-12 14:01N 49°30' W 002°18'815.2
2019-May-12 13:30N 49°36' W 002°10'714.0
2019-May-12 13:00N 49°42' W 002°04'713.1
2019-May-12 12:28N 49°49' W 001°60'714.8
2019-May-12 12:00N 49°54' W 001°53'815.7
2019-May-12 11:30N 50°01' W 001°47'916.2
2019-May-12 10:59N 50°07' W 001°38'2217.0
2019-May-12 09:39N 50°26' W 001°19'317.4
2019-May-12 09:30N 50°28' W 001°17'917.8
2019-May-12 09:01N 50°36' W 001°09'816.2
2019-May-12 08:31N 50°43' W 001°03'612.2
2019-May-12 08:00N 50°49' W 001°07'1 1.3
2019-May-12 07:30N 50°49' W 001°06'0 0.0
2019-May-12 07:00N 50°49' W 001°06'0 0.0
2019-May-12 06:30N 50°49' W 001°06'0 0.0
2019-May-12 06:00N 50°49' W 001°06'0 0.0
2019-May-12 05:30N 50°49' W 001°06'0 0.8
2019-May-12 05:00N 50°49' W 001°06'510.4
2019-May-12 04:30N 50°44' W 001°04'714.0
2019-May-12 04:00N 50°37' W 001°07'815.4
2019-May-12 03:30N 50°31' W 001°14'816.3
2019-May-12 03:00N 50°25' W 001°22'815.7
2019-May-12 02:30N 50°18' W 001°30'612.6
2019-May-12 02:00N 50°13' W 001°35'612.1
2019-May-12 01:30N 50°07' W 001°37'612.9
2019-May-12 01:00N 50°02' W 001°43'713.4
2019-May-12 00:30N 49°56' W 001°49'713.3
2019-May-12 00:00N 49°51' W 001°54'714.2
2019-May-11 23:31N 49°45' W 002°00'1019.5
2019-May-11 23:00N 49°36' W 002°07'918.1
2019-May-11 22:30N 49°28' W 002°13'917.3
2019-May-11 22:01N 49°20' W 002°18'816.2
2019-May-11 21:31N 49°12' W 002°18'713.7
2019-May-11 21:01N 49°10' W 002°08'1 1.7
2019-May-11 20:19N 49°11' W 002°07'0 0.0
2019-May-11 19:43N 49°11' W 002°07'0 0.0
2019-May-11 19:01N 49°11' W 002°07'0 0.0
2019-May-11 18:49N 49°11' W 002°07'0 0.1
2019-May-11 18:19N 49°11' W 002°07'1 3.9
2019-May-11 17:59N 49°10' W 002°09'613.3
2019-May-11 17:31N 49°11' W 002°18'714.5
2019-May-11 17:00N 49°17' W 002°23'713.5
2019-May-11 16:31N 49°24' W 002°28'5 9.1
2019-May-11 16:01N 49°27' W 002°32'0 0.0
2019-May-11 15:31N 49°27' W 002°32'0 0.0
2019-May-11 15:01N 49°27' W 002°32'3 6.5
2019-May-11 14:30N 49°26' W 002°27'816.8
2019-May-11 14:01N 49°31' W 002°17'815.7
2019-May-11 13:28N 49°37' W 002°08'714.7
2019-May-11 13:00N 49°43' W 002°03'713.1
2019-May-11 12:30N 49°48' W 001°56'714.4
2019-May-11 12:00N 49°54' W 001°50'714.9
2019-May-11 11:30N 49°60' W 001°44'815.6
2019-May-11 11:00N 50°07' W 001°37'816.0
2019-May-11 10:30N 50°13' W 001°30'916.4
2019-May-11 09:57N 50°21' W 001°22'716.8
2019-May-11 09:30N 50°27' W 001°16'917.1
2019-May-11 09:01N 50°34' W 001°08'917.1
2019-May-11 08:30N 50°41' W 001°01'714.8
2019-May-11 08:00N 50°48' W 001°07'1 2.8
2019-May-11 07:30N 50°49' W 001°06'0 0.0
2019-May-11 07:00N 50°49' W 001°06'0 0.0
2019-May-11 06:30N 50°49' W 001°06'0 0.0
2019-May-11 06:00N 50°49' W 001°06'0 0.0
2019-May-11 05:30N 50°49' W 001°06'1 1.3
2019-May-11 05:00N 50°49' W 001°07'611.3
2019-May-11 04:30N 50°44' W 001°02'713.9
2019-May-11 04:00N 50°37' W 001°07'714.4
2019-May-11 03:31N 50°31' W 001°14'812.4
2019-May-11 02:52N 50°25' W 001°21'412.0
2019-May-11 02:30N 50°21' W 001°25'612.3
2019-May-11 02:00N 50°17' W 001°31'611.9
2019-May-11 01:30N 50°11' W 001°34'612.4
2019-May-11 01:00N 50°06' W 001°39'612.9
2019-May-11 00:31N 50°00' W 001°44'612.7
2019-May-11 00:00N 49°55' W 001°49'612.8
2019-May-10 23:31N 49°49' W 001°55'816.4
2019-May-10 23:01N 49°43' W 002°02'1020.0
2019-May-10 22:30N 49°34' W 002°09'918.5
2019-May-10 22:01N 49°25' W 002°15'918.1
2019-May-10 21:31N 49°17' W 002°20'714.3
2019-May-10 21:00N 49°10' W 002°16'6 5.5
2019-May-10 19:55N 49°11' W 002°07'0 0.0
2019-May-10 18:43N 49°11' W 002°07'0 0.0
2019-May-10 18:27N 49°11' W 002°07'4 9.0
2019-May-10 18:00N 49°10' W 002°13'816.8
2019-May-10 17:31N 49°16' W 002°22'917.2
2019-May-10 17:01N 49°23' W 002°28'  

Dump ship's entire track history